Time;durP1;ratioP1;P1;durP2;ratioP2;P2;SDS_P1;SDS_P2;PMS_P1;PMS_P2;Temp;Humidity;BMP_temperature;BMP_pressure;BME280_temperature;BME280_humidity;BME280_pressure;Samples;Min_cycle;Max_cycle;Signal;HPM_P1;HPM_P2
2022/12/19 00:01:19;;;;;;;26.33;12.67;;;;;;;-0.74;92.31;101798.63;5014816;28;20025;-77
2022/12/19 00:03:49;;;;;;;27.17;12.13;;;;;;;-0.73;92.77;101799.50;5028215;28;20034;-77
2022/12/19 00:06:16;;;;;;;25.57;12.07;;;;;;;-0.73;93.23;101789.28;5032095;28;20543;-77
2022/12/19 00:08:43;;;;;;;26.23;12.93;;;;;;;-0.72;92.05;101774.00;5027144;28;20041;-78
2022/12/19 00:11:10;;;;;;;24.30;11.67;;;;;;;-0.71;92.86;101773.19;5025501;28;20041;-78
2022/12/19 00:13:36;;;;;;;23.67;11.23;;;;;;;-0.69;93.18;101770.72;5031058;28;20048;-78
2022/12/19 00:16:03;;;;;;;25.10;11.67;;;;;;;-0.69;93.23;101760.50;5027425;28;20480;-78
2022/12/19 00:18:29;;;;;;;27.10;12.00;;;;;;;-0.66;93.57;101755.47;5030444;28;20096;-78
2022/12/19 00:20:59;;;;;;;25.27;11.63;;;;;;;-0.67;92.98;101752.03;5033424;28;20032;-78
2022/12/19 00:23:26;;;;;;;22.83;10.73;;;;;;;-0.64;93.69;101741.94;5022199;28;20108;-78
2022/12/19 00:25:52;;;;;;;21.93;10.93;;;;;;;-0.61;93.78;101764.16;5025044;28;20439;-78
2022/12/19 00:28:17;;;;;;;26.83;12.60;;;;;;;-0.58;92.89;101728.50;5026134;28;20029;-78
2022/12/19 00:30:42;;;;;;;27.97;13.13;;;;;;;-0.56;93.21;101747.31;5024193;28;20049;-78
2022/12/19 00:33:07;;;;;;;29.27;13.27;;;;;;;-0.54;93.56;101715.00;5027044;28;20120;-78
2022/12/19 00:35:33;;;;;;;28.33;12.57;;;;;;;-0.54;93.43;101719.25;5024620;28;20468;-78
2022/12/19 00:37:58;;;;;;;25.20;12.27;;;;;;;-0.54;93.75;101715.00;5030131;28;20038;-78
2022/12/19 00:40:23;;;;;;;25.97;12.33;;;;;;;-0.56;94.28;101719.19;5027616;28;20091;-78
2022/12/19 00:42:48;;;;;;;28.27;12.30;;;;;;;-0.54;94.60;101702.25;5013319;28;20136;-78
2022/12/19 00:45:14;;;;;;;26.33;12.80;;;;;;;-0.53;95.15;101701.41;5033657;28;20411;-79
2022/12/19 00:47:39;;;;;;;26.13;12.83;;;;;;;-0.50;94.95;101693.81;5029499;28;20039;-78
2022/12/19 00:50:05;;;;;;;27.30;12.93;;;;;;;-0.47;94.89;101695.63;5032003;28;20021;-78
2022/12/19 00:52:30;;;;;;;24.00;11.73;;;;;;;-0.42;94.61;101688.97;5026107;28;20025;-78
2022/12/19 00:54:55;;;;;;;27.93;12.47;;;;;;;-0.37;95.00;101692.56;5032401;28;20033;-78
2022/12/19 00:57:20;;;;;;;30.23;13.50;;;;;;;-0.31;95.44;101691.88;5032298;28;20381;-78
2022/12/19 00:59:46;;;;;;;23.33;11.03;;;;;;;-0.28;95.44;101680.91;5028533;28;20083;-78
2022/12/19 01:02:11;;;;;;;30.07;13.07;;;;;;;-0.26;95.48;101690.34;5011401;28;20060;-78
2022/12/19 01:04:36;;;;;;;29.27;13.57;;;;;;;-0.23;94.49;101689.56;5028319;28;20044;-78
2022/12/19 01:07:04;;;;;;;25.47;12.40;;;;;;;-0.18;95.75;101677.81;5033378;28;20127;-78
2022/12/19 01:09:30;;;;;;;26.17;12.17;;;;;;;-0.13;95.40;101671.16;5025187;28;20471;-79
2022/12/19 01:14:39;;;;;;;27.93;12.20;;;;;;;-0.08;95.64;101667.03;5033661;28;20491;-78
2022/12/19 01:17:05;;;;;;;25.77;11.87;;;;;;;-0.03;95.11;101674.88;5017976;28;20029;-78
2022/12/19 01:19:30;;;;;;;27.20;13.37;;;;;;;0.01;94.41;101675.84;5032464;28;20037;-78
2022/12/19 01:21:55;;;;;;;26.57;12.73;;;;;;;0.05;94.74;101665.75;5030760;28;20041;-78
2022/12/19 01:24:20;;;;;;;27.27;12.40;;;;;;;0.06;95.08;101672.59;5027822;28;20030;-77
2022/12/19 01:26:46;;;;;;;25.17;12.53;;;;;;;0.09;95.62;101661.59;5028059;28;20060;-78
2022/12/19 01:29:11;;;;;;;32.43;13.70;;;;;;;0.11;95.36;101660.84;5032073;28;20057;-78
2022/12/19 01:31:36;;;;;;;30.07;12.83;;;;;;;0.14;95.96;101657.50;5023386;28;20025;-78
2022/12/19 01:34:02;;;;;;;28.23;12.87;;;;;;;0.15;96.23;101651.56;5028784;28;20465;-78
2022/12/19 01:36:28;;;;;;;26.63;12.00;;;;;;;0.15;96.06;101646.44;5030859;28;20033;-78
2022/12/19 01:38:57;;;;;;;26.27;12.33;;;;;;;0.16;95.33;101643.06;5027199;28;20079;-78
2022/12/19 01:41:23;;;;;;;26.50;12.73;;;;;;;0.19;95.91;101647.38;5031914;28;20037;-78
2022/12/19 01:44:00;;;;;;;25.23;12.20;;;;;;;0.20;95.56;101651.69;5031409;28;20036;-78
2022/12/19 01:46:35;;;;;;;26.50;12.57;;;;;;;0.21;94.85;101649.19;5031089;28;20033;-78
2022/12/19 01:49:01;;;;;;;28.43;12.83;;;;;;;0.22;95.88;101639.81;5023657;28;20441;-78
2022/12/19 01:51:36;;;;;;;26.40;12.17;;;;;;;0.23;95.90;101646.66;5023782;28;20033;-78
2022/12/19 01:54:05;;;;;;;27.00;12.43;;;;;;;0.24;95.91;101630.47;5032577;28;20025;-78
2022/12/19 01:56:39;;;;;;;26.60;12.20;;;;;;;0.25;94.78;101633.09;5031000;28;20033;-78
2022/12/19 01:59:08;;;;;;;28.67;12.87;;;;;;;0.27;95.17;101638.25;5031812;28;20040;-78
2022/12/19 02:01:35;;;;;;;26.53;12.30;;;;;;;0.28;95.58;101634.88;5032182;28;20040;-78
2022/12/19 02:04:02;;;;;;;24.20;11.73;;;;;;;0.28;95.63;101622.09;5030920;28;20044;-78
2022/12/19 02:06:29;;;;;;;26.93;12.40;;;;;;;0.31;95.50;101634.97;5032245;28;20029;-78
2022/12/19 02:08:54;;;;;;;26.37;12.30;;;;;;;0.33;96.28;101625.66;5031719;28;20033;-78
2022/12/19 02:11:20;;;;;;;27.80;12.70;;;;;;;0.35;95.44;101633.38;5030944;28;20534;-78
2022/12/19 02:13:46;;;;;;;26.27;12.17;;;;;;;0.36;96.00;101628.28;5032497;28;20100;-78
2022/12/19 02:16:37;;;;;;;27.90;12.87;;;;;;;0.38;95.63;101624.06;5031535;28;20041;-78
2022/12/19 02:19:31;;;;;;;26.97;12.20;;;;;;;0.39;95.57;101620.69;5026343;28;20091;-78
2022/12/19 02:22:03;;;;;;;27.37;12.13;;;;;;;0.41;95.87;101603.69;5025890;28;20369;-78
2022/12/19 02:24:48;;;;;;;;;;;;;;;0.43;95.25;101607.16;5030009;28;20033;-78
2022/12/19 02:27:50;;;;;;;22.57;11.63;;;;;;;0.47;95.47;101609.81;5032755;28;19915;-78
2022/12/19 02:30:35;;;;;;;25.17;11.23;;;;;;;0.50;95.58;101605.66;5024045;28;20053;-78
2022/12/19 02:33:07;;;;;;;24.93;12.13;;;;;;;0.54;95.81;101609.16;5032493;28;20397;-78
2022/12/19 02:35:35;;;;;;;;;;;;;;;0.56;96.15;101597.25;5032477;28;20061;-78
2022/12/19 02:38:17;;;;;;;27.43;12.40;;;;;;;0.59;96.06;101595.69;5026448;28;19971;-78
2022/12/19 02:41:04;;;;;;;26.35;11.38;;;;;;;0.61;96.18;101580.34;5028283;28;20099;-78
2022/12/19 02:43:34;;;;;;;27.33;11.90;;;;;;;0.63;96.23;101590.59;5030688;28;20021;-78
2022/12/19 02:46:02;;;;;;;24.00;11.63;;;;;;;0.65;96.23;101578.72;5029759;28;20032;-78
2022/12/19 02:48:28;;;;;;;24.97;12.00;;;;;;;0.66;96.68;101578.78;5030519;28;20053;-78
2022/12/19 02:50:54;;;;;;;23.10;10.87;;;;;;;0.67;96.59;101574.50;5029100;28;20032;-78
2022/12/19 02:53:19;;;;;;;23.03;10.90;;;;;;;0.70;97.08;101567.78;5028727;28;20022;-78
2022/12/19 02:56:13;;;;;;;23.20;10.60;;;;;;;0.71;97.50;101561.81;5029870;28;20490;-78
2022/12/19 02:59:05;;;;;;;22.77;10.83;;;;;;;0.74;97.49;101555.94;5021630;28;20028;-78
2022/12/19 03:01:33;;;;;;;22.97;10.83;;;;;;;0.72;97.39;101558.44;5015750;28;20033;-78
2022/12/19 03:04:18;;;;;;;22.07;10.90;;;;;;;0.73;97.45;101565.28;5026916;28;20117;-78
2022/12/19 03:06:51;;;;;;;22.13;10.63;;;;;;;0.77;97.12;101555.13;5031971;28;20040;-78
2022/12/19 03:09:26;;;;;;;24.07;10.47;;;;;;;0.77;97.45;101545.75;5030041;28;20025;-78
2022/12/19 03:11:59;;;;;;;22.20;10.73;;;;;;;0.79;97.92;101554.34;5029460;28;20041;-78
2022/12/19 03:14:25;;;;;;;23.20;10.70;;;;;;;0.82;97.94;101556.13;5031211;28;20025;-78
2022/12/19 03:16:51;;;;;;;22.30;10.93;;;;;;;0.82;98.15;101548.44;5026084;28;20025;-78
2022/12/19 03:19:16;;;;;;;22.23;10.83;;;;;;;0.85;98.46;101551.09;5031329;28;20027;-78
2022/12/19 03:21:49;;;;;;;20.23;10.50;;;;;;;0.88;98.42;101551.16;5031677;28;20033;-78
2022/12/19 03:24:16;;;;;;;21.47;9.80;;;;;;;0.90;98.38;101552.06;5029820;28;20485;-78
2022/12/19 03:26:57;;;;;;;21.17;10.73;;;;;;;0.94;98.50;101553.03;5031761;28;20025;-78
2022/12/19 03:29:30;;;;;;;20.30;9.40;;;;;;;0.96;98.51;101549.66;5025810;28;20422;-78
2022/12/19 03:31:59;;;;;;;22.87;9.93;;;;;;;0.98;98.86;101545.44;5025623;28;20025;-78
2022/12/19 03:34:31;;;;;;;23.73;10.50;;;;;;;1.03;99.33;101543.00;5031647;28;20033;-78
2022/12/19 03:37:01;;;;;;;21.20;10.05;;;;;;;1.07;99.65;101542.25;5031454;28;20030;-78
2022/12/19 03:39:28;;;;;;;22.87;10.10;;;;;;;1.12;99.36;101538.09;5030491;28;20124;-78
2022/12/19 03:44:42;;;;;;;21.90;10.50;;;;;;;1.24;99.11;101522.13;5034230;28;20044;-78
2022/12/19 03:47:16;;;;;;;20.37;9.77;;;;;;;1.31;99.10;101535.97;5033330;28;20036;-78
2022/12/19 03:49:42;;;;;;;22.07;10.43;;;;;;;1.38;99.18;101524.16;5023669;28;20030;-78
2022/12/19 03:52:19;;;;;;;20.20;9.93;;;;;;;1.40;99.65;101530.19;5031400;28;20017;-79
2022/12/19 03:55:04;;;;;;;19.17;9.60;;;;;;;1.43;99.00;101532.84;5034583;28;20029;-79
2022/12/19 03:57:37;;;;;;;20.33;10.07;;;;;;;1.46;98.94;101522.66;5020979;28;20041;-79
2022/12/19 04:00:23;;;;;;;21.17;10.10;;;;;;;1.48;99.41;101521.84;5028495;28;20408;-79
2022/12/19 04:02:51;;;;;;;21.60;10.60;;;;;;;1.53;99.27;101514.28;5030547;28;20048;-78
2022/12/19 04:05:22;;;;;;;19.83;10.07;;;;;;;1.54;99.18;101510.84;5024957;28;20030;-79
2022/12/19 04:07:49;;;;;;;22.33;10.77;;;;;;;1.55;99.54;101517.72;5027534;28;20030;-79
2022/12/19 04:10:18;;;;;;;21.83;10.53;;;;;;;1.59;99.39;101513.53;5033775;28;20028;-78
2022/12/19 04:13:07;;;;;;;20.23;10.10;;;;;;;1.61;99.36;101511.88;5031881;28;20036;-78
2022/12/19 04:15:55;;;;;;;20.10;10.40;;;;;;;1.62;99.52;101505.94;5032117;28;20032;-78
2022/12/19 04:18:21;;;;;;;23.63;10.27;;;;;;;1.67;99.19;101512.00;5024925;28;20068;-79
2022/12/19 04:20:57;;;;;;;21.23;10.63;;;;;;;1.69;99.75;101510.34;5030799;28;20030;-78
2022/12/19 04:23:32;;;;;;;21.07;10.13;;;;;;;1.74;99.40;101505.28;5033007;28;20108;-78
2022/12/19 04:26:02;;;;;;;19.67;9.83;;;;;;;1.76;99.64;101503.63;5033072;28;20072;-78
2022/12/19 04:28:44;;;;;;;19.13;9.77;;;;;;;1.78;99.77;101501.97;5032222;28;20026;-78
2022/12/19 04:31:14;;;;;;;18.17;9.70;;;;;;;1.80;99.93;101492.63;5028951;28;20045;-79
2022/12/19 04:33:39;;;;;;;19.23;9.97;;;;;;;1.84;100.00;101494.41;5031637;28;20488;-78
2022/12/19 04:36:05;;;;;;;18.67;9.60;;;;;;;1.88;99.97;101495.34;5028661;28;20025;-78
2022/12/19 04:38:31;;;;;;;18.27;8.53;;;;;;;1.90;100.00;101494.53;5032763;28;20049;-78
2022/12/19 04:40:56;;;;;;;17.93;8.90;;;;;;;1.94;100.00;101485.22;5032961;28;20029;-79
2022/12/19 04:43:21;;;;;;;18.97;9.77;;;;;;;1.97;100.00;101486.13;5031851;28;20021;-79
2022/12/19 04:45:46;;;;;;;17.63;8.90;;;;;;;1.99;100.00;101482.72;5032362;28;20045;-79
2022/12/19 04:48:12;;;;;;;18.17;8.83;;;;;;;2.05;100.00;101486.28;5034637;28;20029;-79
2022/12/19 04:50:37;;;;;;;16.53;8.43;;;;;;;2.10;100.00;101482.13;5031410;28;20056;-79
2022/12/19 04:53:02;;;;;;;18.17;8.97;;;;;;;2.15;100.00;101484.75;5032344;28;20029;-78
2022/12/19 04:55:28;;;;;;;16.03;7.97;;;;;;;2.19;100.00;101488.25;5030255;28;20383;-79
2022/12/19 04:57:53;;;;;;;14.87;8.20;;;;;;;2.23;100.00;101477.22;5024438;28;20492;-79
2022/12/19 05:00:18;;;;;;;17.90;8.50;;;;;;;2.30;100.00;101483.31;5033220;28;20095;-79
2022/12/19 05:02:44;;;;;;;15.30;7.93;;;;;;;2.33;100.00;101481.66;5032141;28;20156;-79
2022/12/19 05:05:10;;;;;;;14.53;8.00;;;;;;;2.40;100.00;101475.81;5030921;28;20040;-79
2022/12/19 05:07:35;;;;;;;13.77;7.20;;;;;;;2.48;100.00;101488.81;5032438;28;20079;-79
2022/12/19 05:10:00;;;;;;;13.30;6.83;;;;;;;2.54;100.00;101488.03;5032394;28;20079;-79
2022/12/19 05:12:28;;;;;;;13.70;6.63;;;;;;;2.62;100.00;101485.59;5028398;28;20029;-79
2022/12/19 05:14:53;;;;;;;13.53;6.27;;;;;;;2.70;100.00;101494.31;5030202;28;20106;-79
2022/12/19 05:17:18;;;;;;;12.50;6.27;;;;;;;2.81;100.00;101477.38;5032577;28;20060;-79
2022/12/19 05:19:43;;;;;;;12.73;6.10;;;;;;;2.89;100.00;101480.06;5030205;28;20384;-78
2022/12/19 05:22:09;;;;;;;11.97;6.27;;;;;;;3.00;100.00;101480.25;5028162;28;20021;-79
2022/12/19 05:24:34;;;;;;;10.73;5.90;;;;;;;3.05;100.00;101476.06;5026382;28;20397;-79
2022/12/19 05:26:59;;;;;;;10.87;6.17;;;;;;;3.13;100.00;101486.44;5032076;28;20032;-79
2022/12/19 05:29:24;;;;;;;11.73;6.30;;;;;;;3.17;100.00;101468.53;5031506;28;20060;-79
2022/12/19 05:31:50;;;;;;;10.97;5.73;;;;;;;3.22;100.00;101473.72;5028798;28;20136;-79
2022/12/19 05:34:15;;;;;;;10.40;5.83;;;;;;;3.29;100.00;101474.69;5026092;28;20021;-79
2022/12/19 05:36:40;;;;;;;11.43;5.50;;;;;;;3.33;100.00;101461.88;5026019;28;20465;-79
2022/12/19 05:39:05;;;;;;;12.40;6.00;;;;;;;3.42;100.00;101476.56;5026719;28;20021;-79
2022/12/19 05:41:31;;;;;;;11.00;6.10;;;;;;;3.49;100.00;101468.13;5025574;28;20036;-79
2022/12/19 05:43:56;;;;;;;10.37;5.70;;;;;;;3.54;100.00;101470.75;5027478;28;20022;-79
2022/12/19 05:46:22;;;;;;;11.47;5.73;;;;;;;3.61;100.00;101467.41;5030391;28;20030;-79
2022/12/19 05:48:48;;;;;;;10.47;6.07;;;;;;;3.68;100.00;101465.78;5027635;28;20034;-81
2022/12/19 05:51:14;;;;;;;11.17;5.70;;;;;;;3.72;100.00;101452.13;5029042;28;20096;-80
2022/12/19 05:53:40;;;;;;;10.53;5.67;;;;;;;3.76;100.00;101446.13;5022467;28;20030;-79
2022/12/19 05:56:08;;;;;;;10.33;6.03;;;;;;;3.85;100.00;101459.97;5028042;28;20033;-78
2022/12/19 05:58:33;;;;;;;9.60;5.50;;;;;;;3.90;100.00;101455.75;5031001;28;20039;-80
2022/12/19 06:01:09;;;;;;;10.57;5.40;;;;;;;3.94;100.00;101465.22;5026127;28;20120;-79
2022/12/19 06:03:34;;;;;;;9.53;5.40;;;;;;;3.98;100.00;101451.56;5027158;28;20104;-79
2022/12/19 06:06:04;;;;;;;10.20;5.67;;;;;;;4.02;100.00;101471.34;5030375;28;20120;-79
2022/12/19 06:08:30;;;;;;;10.13;5.30;;;;;;;4.05;100.00;101452.47;5030614;28;20100;-79
2022/12/19 06:10:59;;;;;;;10.23;5.43;;;;;;;4.09;100.00;101464.56;5030883;28;20083;-80
2022/12/19 06:13:24;;;;;;;9.53;5.20;;;;;;;4.13;100.00;101465.44;5026943;28;20014;-79
2022/12/19 06:15:49;;;;;;;10.43;5.50;;;;;;;4.16;100.00;101445.75;5028106;28;20472;-79
2022/12/19 06:18:14;;;;;;;10.07;5.47;;;;;;;4.19;100.00;101466.38;5027736;28;20447;-79
2022/12/19 06:20:40;;;;;;;9.13;4.80;;;;;;;4.24;100.00;101456.13;5029973;28;20037;-80
2022/12/19 06:23:05;;;;;;;8.03;5.03;;;;;;;4.27;100.00;101463.88;5027265;28;20036;-80
2022/12/19 06:25:30;;;;;;;8.57;5.37;;;;;;;4.30;100.00;101448.47;5030329;28;20095;-80
2022/12/19 06:27:55;;;;;;;8.30;5.00;;;;;;;4.31;100.00;101465.63;5027961;28;20496;-79
2022/12/19 06:30:21;;;;;;;9.03;5.30;;;;;;;4.36;100.00;101463.09;5023590;28;20107;-80
2022/12/19 06:32:46;;;;;;;9.83;5.43;;;;;;;4.39;100.00;101464.03;5019723;28;20032;-80
2022/12/19 06:35:11;;;;;;;8.33;5.03;;;;;;;4.44;100.00;101464.06;5029015;28;20037;-80
2022/12/19 06:37:36;;;;;;;9.20;5.43;;;;;;;4.47;100.00;101460.63;5031604;28;20033;-80
2022/12/19 06:40:02;;;;;;;8.93;5.37;;;;;;;4.52;100.00;101461.56;5018149;28;20492;-79
2022/12/19 06:42:27;;;;;;;9.02;5.00;;;;;;;4.53;100.00;101477.00;5029988;28;20044;-80
2022/12/19 06:44:54;;;;;;;7.85;4.80;;;;;;;4.58;100.00;101474.50;5031428;28;20032;-79
2022/12/19 06:47:20;;;;;;;8.68;4.88;;;;;;;4.62;100.00;101468.50;5031888;28;20228;-80
2022/12/19 06:49:47;;;;;;;9.77;5.10;;;;;;;4.64;100.00;101469.38;5014259;28;20098;-80
2022/12/19 06:52:13;;;;;;;9.48;5.10;;;;;;;4.69;100.00;101483.19;5030073;28;20120;-80
2022/12/19 06:54:38;;;;;;;9.27;5.07;;;;;;;4.74;100.00;101465.19;5029983;28;20136;-79
2022/12/19 06:57:04;;;;;;;8.07;4.80;;;;;;;4.78;100.00;101484.13;5026625;28;20411;-80
2022/12/19 06:59:29;;;;;;;9.05;5.30;;;;;;;4.83;100.00;101467.84;5028405;28;20029;-79
2022/12/19 07:02:09;;;;;;;8.53;5.67;;;;;;;4.87;100.00;101481.63;5030275;28;20087;-79
2022/12/19 07:04:44;;;;;;;9.70;4.83;;;;;;;4.92;100.00;101468.75;5028852;28;20057;-80
2022/12/19 07:07:10;;;;;;;7.77;4.40;;;;;;;4.93;100.00;101468.78;5024907;28;20461;-80
2022/12/19 07:09:35;;;;;;;8.38;5.40;;;;;;;4.95;100.00;101469.63;5031047;28;20060;-79
2022/12/19 07:12:01;;;;;;;7.38;4.43;;;;;;;4.95;100.00;101464.47;5029639;28;20033;-79
2022/12/19 07:14:26;;;;;;;8.17;5.17;;;;;;;4.98;100.00;101469.66;5030415;28;20022;-79
2022/12/19 07:16:53;;;;;;;8.63;4.95;;;;;;;4.99;100.00;101468.81;5033737;28;20471;-79
2022/12/19 07:19:20;;;;;;;8.60;5.07;;;;;;;5.00;100.00;101475.69;5032283;28;20025;-79
2022/12/19 07:21:45;;;;;;;7.17;4.70;;;;;;;5.04;100.00;101462.84;5033606;28;20025;-80
2022/12/19 07:24:12;;;;;;;8.98;5.43;;;;;;;5.05;100.00;101462.84;5033004;28;20033;-79
2022/12/19 07:26:37;;;;;;;9.45;5.75;;;;;;;5.07;100.00;101474.03;5027056;28;20040;-80
2022/12/19 07:29:03;;;;;;;7.55;5.00;;;;;;;5.09;100.00;101485.22;5019112;28;20030;-79
2022/12/19 07:31:28;;;;;;;8.68;4.90;;;;;;;5.12;100.00;101468.94;5031770;28;20029;-80
2022/12/19 07:33:53;;;;;;;8.20;4.90;;;;;;;5.13;100.00;101473.19;5027395;28;20017;-80
2022/12/19 07:36:18;;;;;;;9.30;5.20;;;;;;;5.16;100.00;101468.06;5032011;28;20021;-80
2022/12/19 07:38:44;;;;;;;6.80;4.20;;;;;;;5.18;100.00;101466.38;5029155;28;20509;-80
2022/12/19 07:41:09;;;;;;;7.97;4.80;;;;;;;5.20;100.00;101482.72;5026557;28;20491;-80
2022/12/19 07:43:34;;;;;;;9.63;5.40;;;;;;;5.20;100.00;101469.81;5029015;28;20032;-80
2022/12/19 07:46:00;;;;;;;9.55;5.20;;;;;;;5.21;100.00;101479.28;5029624;28;20048;-79
2022/12/19 07:48:25;;;;;;;7.10;4.65;;;;;;;5.22;100.00;101488.75;5025959;28;20037;-80
2022/12/19 07:50:50;;;;;;;7.85;4.53;;;;;;;5.23;100.00;101480.16;5031920;28;20033;-80
2022/12/19 07:53:15;;;;;;;8.47;5.00;;;;;;;5.24;100.00;101481.03;5029243;28;20113;-80
2022/12/19 07:55:41;;;;;;;8.15;4.72;;;;;;;5.26;100.00;101485.34;5030788;28;20515;-79
2022/12/19 07:58:09;;;;;;;10.80;4.90;;;;;;;5.27;100.00;101492.25;5029481;28;20088;-80
2022/12/19 08:00:34;;;;;;;7.57;4.77;;;;;;;5.30;100.00;101488.81;5032324;28;20033;-79
2022/12/19 08:03:00;;;;;;;8.88;4.90;;;;;;;5.31;100.00;101493.13;5033712;28;20468;-79
2022/12/19 08:05:25;;;;;;;9.60;5.03;;;;;;;5.30;100.00;101489.66;5033732;28;20480;-80
2022/12/19 08:07:51;;;;;;;7.55;4.57;;;;;;;5.33;100.00;101496.56;5034103;28;20037;-79
2022/12/19 08:10:18;;;;;;;6.90;4.50;;;;;;;5.34;100.00;101502.59;5031377;28;20037;-80
2022/12/19 08:12:44;;;;;;;8.27;4.72;;;;;;;5.34;100.00;101503.47;5017976;28;20113;-79
2022/12/19 08:15:10;;;;;;;7.05;4.60;;;;;;;5.37;100.00;101502.63;5035391;28;20057;-80
2022/12/19 08:17:35;;;;;;;7.63;5.20;;;;;;;5.38;100.00;101510.34;5018972;28;20460;-80
2022/12/19 08:20:00;;;;;;;7.50;4.72;;;;;;;5.40;100.00;101507.81;5024466;28;20029;-79
2022/12/19 08:22:28;;;;;;;8.25;4.60;;;;;;;5.39;100.00;101501.75;5030653;28;20765;-80
2022/12/19 08:24:53;;;;;;;7.72;4.72;;;;;;;5.41;100.00;101506.94;5034580;28;20037;-79
2022/12/19 08:27:19;;;;;;;8.10;4.90;;;;;;;5.43;100.00;101508.69;5033860;28;20100;-80
2022/12/19 08:29:44;;;;;;;6.85;4.55;;;;;;;5.44;100.00;101504.41;5015475;28;20405;-79
2022/12/19 08:32:09;;;;;;;8.48;5.00;;;;;;;5.46;100.00;101502.69;5027679;28;20105;-80
2022/12/19 08:34:34;;;;;;;6.78;4.45;;;;;;;5.49;100.00;101501.84;5018337;28;20026;-80
2022/12/19 08:37:00;;;;;;;8.38;4.47;;;;;;;5.50;100.00;101488.94;5021101;28;20029;-79
2022/12/19 08:39:25;;;;;;;8.43;4.88;;;;;;;5.54;100.00;101492.41;5031439;28;20073;-80
2022/12/19 08:41:50;;;;;;;8.68;4.85;;;;;;;5.54;100.00;101493.25;5025523;28;20795;-80
2022/12/19 08:44:15;;;;;;;7.70;4.68;;;;;;;5.56;100.00;101506.16;5014767;28;20044;-80
2022/12/19 08:46:41;;;;;;;9.70;4.70;;;;;;;5.57;100.00;101495.88;5023381;28;20415;-80
2022/12/19 08:49:06;;;;;;;7.97;4.57;;;;;;;5.60;100.00;101501.03;5033747;28;20104;-80
2022/12/19 08:51:31;;;;;;;8.35;5.03;;;;;;;5.62;100.00;101517.41;5024349;28;20033;-79
2022/12/19 08:53:56;;;;;;;9.70;5.13;;;;;;;5.65;100.00;101518.25;5018475;28;20458;-79
2022/12/19 08:56:22;;;;;;;7.60;4.72;;;;;;;5.65;100.00;101519.13;5026614;28;20076;-81
2022/12/19 08:58:50;;;;;;;8.73;4.85;;;;;;;5.70;100.00;101516.56;5020983;28;20075;-80
2022/12/19 09:01:17;;;;;;;7.13;4.85;;;;;;;5.73;100.00;101508.84;5025419;28;20029;-80
2022/12/19 09:03:44;;;;;;;8.88;4.90;;;;;;;5.77;100.00;101508.00;5023705;28;20033;-79
2022/12/19 09:06:11;;;;;;;7.20;4.30;;;;;;;5.80;100.00;101508.03;5026004;28;20464;-79
2022/12/19 09:08:38;;;;;;;8.52;4.68;;;;;;;5.83;100.00;101512.34;5027678;28;20469;-80
2022/12/19 09:11:12;;;;;;;6.15;3.92;;;;;;;5.86;100.00;101513.22;5027034;28;20075;-80
2022/12/19 09:13:39;;;;;;;6.07;4.18;;;;;;;5.89;100.00;101502.91;5009340;28;20025;-80
2022/12/19 09:16:09;;;;;;;7.20;4.13;;;;;;;5.90;100.00;101504.63;5025853;28;20052;-80
2022/12/19 09:18:35;;;;;;;7.30;4.28;;;;;;;5.95;100.00;101521.88;5026637;28;20037;-80
2022/12/19 09:21:00;;;;;;;7.85;4.63;;;;;;;5.97;100.00;101522.75;5026670;28;20110;-81
2022/12/19 09:23:27;;;;;;;7.97;4.38;;;;;;;5.98;100.00;101511.56;5025473;28;20033;-80
2022/12/19 09:25:56;;;;;;;7.05;4.38;;;;;;;6.01;100.00;101511.56;5025155;28;20068;-80
2022/12/19 09:28:22;;;;;;;7.43;4.97;;;;;;;6.06;100.00;101517.63;5024633;28;20969;-80
2022/12/19 09:30:55;;;;;;;8.13;4.32;;;;;;;6.06;100.00;101518.47;5025655;28;20523;-80
2022/12/19 09:33:21;;;;;;;9.93;4.72;;;;;;;6.11;100.00;101522.81;5024412;28;20037;-79
2022/12/19 09:35:51;;;;;;;7.05;4.30;;;;;;;6.10;100.00;101521.97;5025062;28;20033;-79
2022/12/19 09:38:17;;;;;;;8.57;4.35;;;;;;;6.14;100.00;101523.72;5025238;28;20469;-79
2022/12/19 09:40:56;;;;;;;7.10;4.40;;;;;;;6.17;100.00;101517.69;5025620;28;20040;-79
2022/12/19 09:43:50;;;;;;;7.13;4.57;;;;;;;6.17;100.00;101523.69;5024628;28;20033;-80
2022/12/19 09:46:18;;;;;;;7.28;4.25;;;;;;;6.21;100.00;101534.94;5027490;28;20115;-79
2022/12/19 09:48:52;;;;;;;7.35;4.60;;;;;;;6.22;100.00;101519.41;5026811;28;20120;-80
2022/12/19 09:51:31;;;;;;;9.68;4.45;;;;;;;6.24;100.00;101519.41;5026943;28;20029;-79
2022/12/19 09:54:17;;;;;;;6.55;4.32;;;;;;;6.28;100.00;101520.31;5025520;28;20033;-79
2022/12/19 09:56:43;;;;;;;6.72;4.20;;;;;;;6.31;100.00;101530.66;5026321;28;20041;-80
2022/12/19 09:59:18;;;;;;;9.13;3.95;;;;;;;6.32;100.00;101528.06;5026014;28;20060;-79
2022/12/19 10:02:13;;;;;;;8.93;4.43;;;;;;;6.37;100.00;101525.47;5025101;28;20030;-79
2022/12/19 10:04:46;;;;;;;7.72;3.97;;;;;;;6.38;100.00;101530.69;5024429;28;20044;-80
2022/12/19 10:07:11;;;;;;;7.47;4.50;;;;;;;6.42;100.00;101525.50;5025177;28;20041;-79
2022/12/19 10:09:37;;;;;;;7.47;4.07;;;;;;;6.46;100.00;101540.16;5025207;28;20030;-79
2022/12/19 10:12:20;;;;;;;6.95;3.95;;;;;;;6.48;100.00;101541.91;5008229;28;20236;-79
2022/12/19 10:15:14;;;;;;;6.15;4.18;;;;;;;6.52;100.00;101543.63;5024413;28;20205;-79
2022/12/19 10:18:01;;;;;;;5.45;3.55;;;;;;;6.57;100.00;101540.19;5024800;28;20488;-79
2022/12/19 10:20:31;;;;;;;7.22;4.15;;;;;;;6.60;100.00;101529.84;5024138;28;20056;-79
2022/12/19 10:23:21;;;;;;;7.53;3.97;;;;;;;6.62;100.00;101531.56;5024152;28;20040;-78
2022/12/19 10:25:50;;;;;;;6.00;3.63;;;;;;;6.64;99.95;101529.00;5020605;28;20048;-79
2022/12/19 10:28:36;;;;;;;6.63;4.00;;;;;;;6.68;99.53;101530.72;5021918;28;20036;-80
2022/12/19 10:31:32;;;;;;;7.28;4.38;;;;;;;6.72;99.36;101526.44;5004688;28;20101;-79
2022/12/19 10:34:14;;;;;;;5.47;3.63;;;;;;;6.72;99.33;101527.28;5021612;28;20037;-79
2022/12/19 10:36:43;;;;;;;6.90;3.92;;;;;;;6.73;98.77;101523.84;5021730;28;20034;-79
2022/12/19 10:39:45;;;;;;;6.47;3.75;;;;;;;6.72;98.67;101532.44;5023301;28;20033;-79
2022/12/19 10:42:47;;;;;;;4.93;3.30;;;;;;;6.73;98.68;101541.94;4991654;28;20045;-80
2022/12/19 10:45:16;;;;;;;;;;;;;;;6.76;98.34;101543.66;5018871;28;20060;-79
2022/12/19 10:47:42;;;;;;;7.72;3.92;;;;;;;6.73;98.07;101534.19;5020956;28;19924;-78
2022/12/19 10:50:22;;;;;;;6.18;3.65;;;;;;;6.74;97.90;101535.06;5025173;28;20033;-79
2022/12/19 10:52:55;;;;;;;5.57;3.55;;;;;;;6.74;98.12;101530.72;5029349;28;20527;-79
2022/12/19 10:55:41;;;;;;;5.68;3.58;;;;;;;6.75;98.57;101531.59;5028615;28;20017;-79
2022/12/19 10:58:40;;;;;;;6.72;3.63;;;;;;;6.75;98.31;101531.59;5027985;28;20112;-79
2022/12/19 11:01:12;;;;;;;6.22;3.63;;;;;;;6.78;98.14;101537.66;5016840;28;20037;-79
2022/12/19 11:03:39;;;;;;;;;;;;;;;6.80;98.14;101535.94;5029354;28;20071;-79
2022/12/19 11:06:05;;;;;;;6.13;3.42;;;;;;;6.78;98.13;101529.88;5026419;28;19924;-79
2022/12/19 11:08:33;;;;;;;6.00;3.95;;;;;;;6.79;98.47;101528.16;5028010;28;20059;-79
2022/12/19 11:11:04;;;;;;;6.18;3.40;;;;;;;6.79;98.45;101523.84;5030722;28;20100;-79
2022/12/19 11:13:46;;;;;;;8.15;3.78;;;;;;;6.81;98.51;101532.47;5028812;28;20079;-80
2022/12/19 11:16:19;;;;;;;6.80;3.97;;;;;;;6.83;98.73;101514.38;5026733;28;20048;-79
2022/12/19 11:18:46;;;;;;;6.03;3.50;;;;;;;6.83;98.92;101520.38;5029752;28;20040;-79
2022/12/19 11:21:12;;;;;;;5.80;3.80;;;;;;;6.83;98.83;101515.22;5030699;28;20041;-78
2022/12/19 11:23:47;;;;;;;5.70;3.42;;;;;;;6.82;99.25;101510.06;5028066;28;20037;-79
2022/12/19 11:26:34;;;;;;;6.50;3.50;;;;;;;6.82;98.77;101503.16;5028908;28;20037;-79
2022/12/19 11:29:15;;;;;;;5.57;3.42;;;;;;;6.83;99.03;101504.88;5027437;28;20060;-79
2022/12/19 11:31:41;;;;;;;5.73;3.60;;;;;;;6.82;99.19;101490.25;5028946;28;20376;-78
2022/12/19 11:34:15;;;;;;;6.45;3.72;;;;;;;6.84;99.27;101504.00;5027196;28;20406;-79
2022/12/19 11:36:46;;;;;;;6.00;3.40;;;;;;;6.83;98.89;101499.69;5028763;28;20044;-79
2022/12/19 11:39:20;;;;;;;5.85;3.60;;;;;;;6.83;98.89;101494.53;5027374;28;20034;-80